sensor_id;sensor_type;location;lat;lon;timestamp;pressure;altitude;pressure_sealevel;temperature;humidity
79129;BME280;68529;43.286;23.360;2023-09-19T00:00:42;99474.69;;;17.66;61.36
79129;BME280;68529;43.286;23.360;2023-09-19T00:03:09;99464.31;;;17.62;61.56
79129;BME280;68529;43.286;23.360;2023-09-19T00:05:36;99463.53;;;17.60;61.75
79129;BME280;68529;43.286;23.360;2023-09-19T00:08:02;99464.41;;;17.60;61.52
79129;BME280;68529;43.286;23.360;2023-09-19T00:10:29;99468.84;;;17.60;61.57
79129;BME280;68529;43.286;23.360;2023-09-19T00:13:01;99466.97;;;17.62;61.75
79129;BME280;68529;43.286;23.360;2023-09-19T00:15:36;99465.44;;;17.58;61.91
79129;BME280;68529;43.286;23.360;2023-09-19T00:18:03;99468.97;;;17.58;61.91
79129;BME280;68529;43.286;23.360;2023-09-19T00:20:30;99457.56;;;17.56;62.01
79129;BME280;68529;43.286;23.360;2023-09-19T00:22:56;99457.47;;;17.58;61.87
79129;BME280;68529;43.286;23.360;2023-09-19T00:25:21;99447.53;;;17.61;61.87
79129;BME280;68529;43.286;23.360;2023-09-19T00:27:47;99459.28;;;17.57;61.89
79129;BME280;68529;43.286;23.360;2023-09-19T00:30:15;99455.94;;;17.54;61.90
79129;BME280;68529;43.286;23.360;2023-09-19T00:32:50;99456.25;;;17.47;62.06
79129;BME280;68529;43.286;23.360;2023-09-19T00:35:19;99460.81;;;17.45;61.98
79129;BME280;68529;43.286;23.360;2023-09-19T00:37:45;99455.84;;;17.39;61.99
79129;BME280;68529;43.286;23.360;2023-09-19T00:40:11;99459.47;;;17.38;62.21
79129;BME280;68529;43.286;23.360;2023-09-19T00:42:44;99465.66;;;17.39;62.13
79129;BME280;68529;43.286;23.360;2023-09-19T00:45:11;99467.16;;;17.43;62.08
79129;BME280;68529;43.286;23.360;2023-09-19T00:47:45;99469.66;;;17.46;61.93
79129;BME280;68529;43.286;23.360;2023-09-19T00:50:13;99467.34;;;17.40;62.00
79129;BME280;68529;43.286;23.360;2023-09-19T00:52:40;99462.22;;;17.37;62.09
79129;BME280;68529;43.286;23.360;2023-09-19T00:55:09;99454.53;;;17.32;62.26
79129;BME280;68529;43.286;23.360;2023-09-19T00:57:36;99455.56;;;17.30;62.15
79129;BME280;68529;43.286;23.360;2023-09-19T01:00:04;99455.75;;;17.27;62.40
79129;BME280;68529;43.286;23.360;2023-09-19T01:02:34;99455.06;;;17.23;62.53
79129;BME280;68529;43.286;23.360;2023-09-19T01:05:00;99460.38;;;17.23;62.50
79129;BME280;68529;43.286;23.360;2023-09-19T01:07:30;99460.38;;;17.23;62.36
79129;BME280;68529;43.286;23.360;2023-09-19T01:09:59;99462.25;;;17.21;62.64
79129;BME280;68529;43.286;23.360;2023-09-19T01:20:48;99462.25;;;17.06;62.45
79129;BME280;68529;43.286;23.360;2023-09-19T01:26:10;99465.88;;;17.05;62.78
79129;BME280;68529;43.286;23.360;2023-09-19T01:28:52;99474.09;;;17.00;62.86
79129;BME280;68529;43.286;23.360;2023-09-19T01:31:22;99481.13;;;17.01;62.67
79129;BME280;68529;43.286;23.360;2023-09-19T01:33:59;99468.97;;;16.97;62.79
79129;BME280;68529;43.286;23.360;2023-09-19T01:36:26;99464.88;;;16.92;62.85
79129;BME280;68529;43.286;23.360;2023-09-19T01:38:52;99467.53;;;16.92;62.93
79129;BME280;68529;43.286;23.360;2023-09-19T01:41:29;99473.06;;;16.87;62.88
79129;BME280;68529;43.286;23.360;2023-09-19T01:43:59;99473.06;;;16.87;62.93
79129;BME280;68529;43.286;23.360;2023-09-19T01:46:37;99465.06;;;16.88;62.98
79129;BME280;68529;43.286;23.360;2023-09-19T01:49:33;99464.03;;;16.91;62.90
79129;BME280;68529;43.286;23.360;2023-09-19T01:52:21;99465.88;;;16.89;63.14
79129;BME280;68529;43.286;23.360;2023-09-19T01:54:51;99468.72;;;16.86;63.11
79129;BME280;68529;43.286;23.360;2023-09-19T01:57:30;99464.34;;;16.85;62.99
79129;BME280;68529;43.286;23.360;2023-09-19T02:00:04;99463.44;;;16.86;63.00
79129;BME280;68529;43.286;23.360;2023-09-19T02:02:35;99465.06;;;16.88;62.79
79129;BME280;68529;43.286;23.360;2023-09-19T02:05:02;99461.38;;;16.91;62.96
79129;BME280;68529;43.286;23.360;2023-09-19T02:07:29;99458.72;;;16.91;62.73
79129;BME280;68529;43.286;23.360;2023-09-19T02:09:57;99457.00;;;16.90;62.61
79129;BME280;68529;43.286;23.360;2023-09-19T02:12:24;99453.56;;;16.88;62.69
79129;BME280;68529;43.286;23.360;2023-09-19T02:14:49;99460.09;;;16.82;62.93
79129;BME280;68529;43.286;23.360;2023-09-19T02:17:15;99459.50;;;16.77;63.11
79129;BME280;68529;43.286;23.360;2023-09-19T02:19:40;99455.38;;;16.72;63.24
79129;BME280;68529;43.286;23.360;2023-09-19T02:22:06;99456.47;;;16.68;63.00
79129;BME280;68529;43.286;23.360;2023-09-19T02:24:33;99453.50;;;16.74;62.85
79129;BME280;68529;43.286;23.360;2023-09-19T02:26:58;99456.16;;;16.74;62.93
79129;BME280;68529;43.286;23.360;2023-09-19T02:29:27;99461.63;;;16.71;62.76
79129;BME280;68529;43.286;23.360;2023-09-19T02:31:52;99459.25;;;16.66;62.76
79129;BME280;68529;43.286;23.360;2023-09-19T02:34:21;99454.50;;;16.56;63.01
79129;BME280;68529;43.286;23.360;2023-09-19T02:36:47;99451.97;;;16.53;63.27
79129;BME280;68529;43.286;23.360;2023-09-19T02:39:12;99445.72;;;16.55;62.97
79129;BME280;68529;43.286;23.360;2023-09-19T02:41:38;99449.19;;;16.56;63.09
79129;BME280;68529;43.286;23.360;2023-09-19T02:44:03;99451.63;;;16.60;62.90
79129;BME280;68529;43.286;23.360;2023-09-19T02:46:35;99447.16;;;16.61;62.72
79129;BME280;68529;43.286;23.360;2023-09-19T02:49:02;99445.63;;;16.57;62.91
79129;BME280;68529;43.286;23.360;2023-09-19T02:51:30;99441.56;;;16.50;62.77
79129;BME280;68529;43.286;23.360;2023-09-19T02:53:56;99445.31;;;16.46;63.02
79129;BME280;68529;43.286;23.360;2023-09-19T02:56:21;99447.22;;;16.44;63.18
79129;BME280;68529;43.286;23.360;2023-09-19T02:58:47;99439.59;;;16.38;63.38
79129;BME280;68529;43.286;23.360;2023-09-19T03:01:14;99443.25;;;16.35;63.61
79129;BME280;68529;43.286;23.360;2023-09-19T03:03:40;99443.69;;;16.43;63.64
79129;BME280;68529;43.286;23.360;2023-09-19T03:06:06;99442.56;;;16.47;63.45
79129;BME280;68529;43.286;23.360;2023-09-19T03:08:36;99440.03;;;16.46;63.51
79129;BME280;68529;43.286;23.360;2023-09-19T03:11:04;99434.44;;;16.50;63.35
79129;BME280;68529;43.286;23.360;2023-09-19T03:13:32;99446.88;;;16.50;63.22
79129;BME280;68529;43.286;23.360;2023-09-19T03:15:57;99444.28;;;16.48;63.51
79129;BME280;68529;43.286;23.360;2023-09-19T03:18:26;99443.13;;;16.54;63.17
79129;BME280;68529;43.286;23.360;2023-09-19T03:20:55;99445.16;;;16.49;63.09
79129;BME280;68529;43.286;23.360;2023-09-19T03:23:21;99453.00;;;16.50;63.17
79129;BME280;68529;43.286;23.360;2023-09-19T03:25:47;99451.38;;;16.48;63.15
79129;BME280;68529;43.286;23.360;2023-09-19T03:28:13;99450.47;;;16.49;63.27
79129;BME280;68529;43.286;23.360;2023-09-19T03:30:38;99461.22;;;16.46;63.32
79129;BME280;68529;43.286;23.360;2023-09-19T03:33:04;99455.00;;;16.47;63.45
79129;BME280;68529;43.286;23.360;2023-09-19T03:35:30;99461.22;;;16.46;63.33
79129;BME280;68529;43.286;23.360;2023-09-19T03:37:55;99459.50;;;16.45;63.29
79129;BME280;68529;43.286;23.360;2023-09-19T03:40:21;99469.94;;;16.48;63.35
79129;BME280;68529;43.286;23.360;2023-09-19T03:42:48;99469.94;;;16.48;63.32
79129;BME280;68529;43.286;23.360;2023-09-19T03:45:13;99471.94;;;16.44;63.21
79129;BME280;68529;43.286;23.360;2023-09-19T03:47:40;99471.25;;;16.41;63.38
79129;BME280;68529;43.286;23.360;2023-09-19T03:50:06;99466.63;;;16.44;63.69
79129;BME280;68529;43.286;23.360;2023-09-19T03:52:34;99462.09;;;16.46;63.54
79129;BME280;68529;43.286;23.360;2023-09-19T03:54:59;99467.91;;;16.53;63.33
79129;BME280;68529;43.286;23.360;2023-09-19T03:57:25;99467.91;;;16.53;63.36
79129;BME280;68529;43.286;23.360;2023-09-19T03:59:50;99469.72;;;16.52;63.49
79129;BME280;68529;43.286;23.360;2023-09-19T04:02:18;99460.75;;;16.55;63.34
79129;BME280;68529;43.286;23.360;2023-09-19T04:04:51;99460.66;;;16.56;63.18
79129;BME280;68529;43.286;23.360;2023-09-19T04:07:17;99462.38;;;16.57;63.27
79129;BME280;68529;43.286;23.360;2023-09-19T04:09:44;99469.31;;;16.60;63.30
79129;BME280;68529;43.286;23.360;2023-09-19T04:12:10;99463.91;;;16.61;63.44
79129;BME280;68529;43.286;23.360;2023-09-19T04:14:36;99461.25;;;16.61;63.37
79129;BME280;68529;43.286;23.360;2023-09-19T04:17:02;99463.84;;;16.63;63.42
79129;BME280;68529;43.286;23.360;2023-09-19T04:19:28;99461.94;;;16.65;63.57
79129;BME280;68529;43.286;23.360;2023-09-19T04:21:53;99461.78;;;16.68;63.46
79129;BME280;68529;43.286;23.360;2023-09-19T04:24:18;99461.63;;;16.71;63.30
79129;BME280;68529;43.286;23.360;2023-09-19T04:26:47;99462.47;;;16.71;63.55
79129;BME280;68529;43.286;23.360;2023-09-19T04:29:13;99464.00;;;16.75;63.75
79129;BME280;68529;43.286;23.360;2023-09-19T04:31:39;99467.19;;;16.82;63.76
79129;BME280;68529;43.286;23.360;2023-09-19T04:34:08;99471.47;;;16.84;63.67
79129;BME280;68529;43.286;23.360;2023-09-19T04:36:33;99465.97;;;16.87;63.46
79129;BME280;68529;43.286;23.360;2023-09-19T04:39:00;99465.13;;;16.87;63.35
79129;BME280;68529;43.286;23.360;2023-09-19T04:41:27;99460.56;;;16.89;63.50
79129;BME280;68529;43.286;23.360;2023-09-19T04:43:52;99451.84;;;16.87;63.69
79129;BME280;68529;43.286;23.360;2023-09-19T04:46:18;99450.75;;;16.91;63.90
79129;BME280;68529;43.286;23.360;2023-09-19T04:48:43;99449.53;;;16.97;63.53
79129;BME280;68529;43.286;23.360;2023-09-19T04:51:09;99455.16;;;17.06;63.83
79129;BME280;68529;43.286;23.360;2023-09-19T04:53:35;99451.41;;;17.10;63.97
79129;BME280;68529;43.286;23.360;2023-09-19T04:56:01;99451.81;;;17.18;63.75
79129;BME280;68529;43.286;23.360;2023-09-19T04:58:28;99448.63;;;17.27;63.79
79129;BME280;68529;43.286;23.360;2023-09-19T05:00:54;99449.28;;;17.31;63.74
79129;BME280;68529;43.286;23.360;2023-09-19T05:03:19;99457.75;;;17.37;63.70
79129;BME280;68529;43.286;23.360;2023-09-19T05:05:45;99453.13;;;17.41;63.53
79129;BME280;68529;43.286;23.360;2023-09-19T05:08:11;99446.97;;;17.40;63.53
79129;BME280;68529;43.286;23.360;2023-09-19T05:10:39;99446.78;;;17.43;63.88
79129;BME280;68529;43.286;23.360;2023-09-19T05:13:05;99446.25;;;17.53;63.47
79129;BME280;68529;43.286;23.360;2023-09-19T05:15:30;99443.91;;;17.62;63.61
79129;BME280;68529;43.286;23.360;2023-09-19T05:17:56;99436.16;;;17.73;63.24
79129;BME280;68529;43.286;23.360;2023-09-19T05:20:21;99430.38;;;17.81;63.15
79129;BME280;68529;43.286;23.360;2023-09-19T05:23:06;99431.34;;;17.94;62.94
79129;BME280;68529;43.286;23.360;2023-09-19T05:25:38;99427.16;;;18.04;63.00
79129;BME280;68529;43.286;23.360;2023-09-19T05:28:06;99433.63;;;18.14;62.70
79129;BME280;68529;43.286;23.360;2023-09-19T05:30:32;99426.09;;;18.21;62.65
79129;BME280;68529;43.286;23.360;2023-09-19T05:32:58;99419.47;;;18.28;62.55
79129;BME280;68529;43.286;23.360;2023-09-19T05:35:24;99416.44;;;18.34;62.52
79129;BME280;68529;43.286;23.360;2023-09-19T05:37:50;99415.00;;;18.42;62.61
79129;BME280;68529;43.286;23.360;2023-09-19T05:40:19;99411.75;;;18.51;62.29
79129;BME280;68529;43.286;23.360;2023-09-19T05:42:45;99413.16;;;18.57;62.39
79129;BME280;68529;43.286;23.360;2023-09-19T05:45:11;99406.72;;;18.61;62.54
79129;BME280;68529;43.286;23.360;2023-09-19T05:47:43;99408.97;;;18.67;62.74
79129;BME280;68529;43.286;23.360;2023-09-19T05:50:11;99404.88;;;18.76;62.42
79129;BME280;68529;43.286;23.360;2023-09-19T05:52:37;99405.22;;;18.84;62.51
79129;BME280;68529;43.286;23.360;2023-09-19T05:55:05;99407.50;;;18.90;62.00
79129;BME280;68529;43.286;23.360;2023-09-19T05:57:35;99411.97;;;19.02;61.74
79129;BME280;68529;43.286;23.360;2023-09-19T06:00:01;99407.88;;;19.10;61.65
79129;BME280;68529;43.286;23.360;2023-09-19T06:02:26;99411.63;;;19.21;61.80
79129;BME280;68529;43.286;23.360;2023-09-19T06:04:54;99412.47;;;19.21;61.70
79129;BME280;68529;43.286;23.360;2023-09-19T06:07:21;99401.41;;;19.27;61.89
79129;BME280;68529;43.286;23.360;2023-09-19T06:09:47;99406.94;;;19.24;61.14
79129;BME280;68529;43.286;23.360;2023-09-19T06:12:12;99402.50;;;19.37;61.73
79129;BME280;68529;43.286;23.360;2023-09-19T06:14:42;99406.41;;;19.58;61.50
79129;BME280;68529;43.286;23.360;2023-09-19T06:17:08;99403.09;;;19.80;60.79
79129;BME280;68529;43.286;23.360;2023-09-19T06:19:34;99404.50;;;19.98;61.10
79129;BME280;68529;43.286;23.360;2023-09-19T06:21:59;99405.28;;;20.24;60.71
79129;BME280;68529;43.286;23.360;2023-09-19T06:24:25;99408.06;;;20.48;60.39
79129;BME280;68529;43.286;23.360;2023-09-19T06:26:51;99402.38;;;20.65;60.10
79129;BME280;68529;43.286;23.360;2023-09-19T06:29:17;99400.03;;;20.84;59.91
79129;BME280;68529;43.286;23.360;2023-09-19T06:31:43;99399.88;;;20.98;59.01
79129;BME280;68529;43.286;23.360;2023-09-19T06:34:10;99402.09;;;21.04;58.81
79129;BME280;68529;43.286;23.360;2023-09-19T06:36:35;99403.50;;;21.10;58.08
79129;BME280;68529;43.286;23.360;2023-09-19T06:39:00;99392.56;;;21.13;57.35
79129;BME280;68529;43.286;23.360;2023-09-19T06:41:26;99389.44;;;21.19;57.57
79129;BME280;68529;43.286;23.360;2023-09-19T06:43:51;99389.06;;;21.12;56.85
79129;BME280;68529;43.286;23.360;2023-09-19T06:46:19;99391.63;;;21.01;56.63
79129;BME280;68529;43.286;23.360;2023-09-19T06:48:45;99387.38;;;20.99;57.71
79129;BME280;68529;43.286;23.360;2023-09-19T06:51:13;99389.59;;;21.05;57.97
79129;BME280;68529;43.286;23.360;2023-09-19T06:53:41;99389.41;;;21.08;57.61
79129;BME280;68529;43.286;23.360;2023-09-19T06:56:07;99392.28;;;21.05;57.52
79129;BME280;68529;43.286;23.360;2023-09-19T06:58:32;99384.22;;;20.94;57.85
79129;BME280;68529;43.286;23.360;2023-09-19T07:00:58;99389.06;;;21.00;58.05
79129;BME280;68529;43.286;23.360;2023-09-19T07:03:23;99389.91;;;21.13;57.55
79129;BME280;68529;43.286;23.360;2023-09-19T07:05:51;99399.16;;;21.20;56.97
79129;BME280;68529;43.286;23.360;2023-09-19T07:08:18;99401.38;;;21.26;57.80
79129;BME280;68529;43.286;23.360;2023-09-19T07:10:44;99402.25;;;21.37;57.48
79129;BME280;68529;43.286;23.360;2023-09-19T07:13:19;99401.66;;;21.45;56.84
79129;BME280;68529;43.286;23.360;2023-09-19T07:15:45;99407.50;;;21.50;56.99
79129;BME280;68529;43.286;23.360;2023-09-19T07:18:18;99403.19;;;21.60;57.07
79129;BME280;68529;43.286;23.360;2023-09-19T07:20:45;99402.56;;;21.68;56.63
79129;BME280;68529;43.286;23.360;2023-09-19T07:23:15;99405.88;;;21.71;56.83
79129;BME280;68529;43.286;23.360;2023-09-19T07:25:41;99402.72;;;21.77;56.55
79129;BME280;68529;43.286;23.360;2023-09-19T07:28:07;99410.66;;;21.90;56.79
79129;BME280;68529;43.286;23.360;2023-09-19T07:30:36;99415.78;;;22.04;56.35
79129;BME280;68529;43.286;23.360;2023-09-19T07:33:06;99401.81;;;22.23;56.57
79129;BME280;68529;43.286;23.360;2023-09-19T07:35:32;99394.50;;;22.36;56.87
79129;BME280;68529;43.286;23.360;2023-09-19T07:37:58;99398.38;;;22.43;55.81
79129;BME280;68529;43.286;23.360;2023-09-19T07:40:27;99396.94;;;22.50;55.78
79129;BME280;68529;43.286;23.360;2023-09-19T07:42:54;99385.38;;;22.49;55.41
79129;BME280;68529;43.286;23.360;2023-09-19T07:45:19;99392.53;;;22.60;55.08
79129;BME280;68529;43.286;23.360;2023-09-19T07:47:46;99387.91;;;22.73;54.44
79129;BME280;68529;43.286;23.360;2023-09-19T07:50:13;99390.94;;;22.80;53.78
79129;BME280;68529;43.286;23.360;2023-09-19T07:52:38;99379.56;;;22.87;53.88
79129;BME280;68529;43.286;23.360;2023-09-19T07:55:05;99379.06;;;22.93;53.39
79129;BME280;68529;43.286;23.360;2023-09-19T07:57:35;99372.34;;;22.99;53.75
79129;BME280;68529;43.286;23.360;2023-09-19T08:00:00;99380.84;;;23.04;53.67
79129;BME280;68529;43.286;23.360;2023-09-19T08:02:25;99383.56;;;22.93;53.34
79129;BME280;68529;43.286;23.360;2023-09-19T08:04:52;99389.28;;;22.99;53.38
79129;BME280;68529;43.286;23.360;2023-09-19T08:07:17;99381.09;;;23.01;53.60
79129;BME280;68529;43.286;23.360;2023-09-19T08:09:43;99376.09;;;23.07;54.06
79129;BME280;68529;43.286;23.360;2023-09-19T08:12:13;99377.50;;;23.23;53.83
79129;BME280;68529;43.286;23.360;2023-09-19T08:14:40;99376.16;;;23.28;52.81
79129;BME280;68529;43.286;23.360;2023-09-19T08:17:06;99366.97;;;23.42;53.02
79129;BME280;68529;43.286;23.360;2023-09-19T08:19:33;99365.44;;;23.69;52.79
79129;BME280;68529;43.286;23.360;2023-09-19T08:24:30;99353.78;;;23.80;52.33
79129;BME280;68529;43.286;23.360;2023-09-19T08:26:56;99356.63;;;23.88;52.41
79129;BME280;68529;43.286;23.360;2023-09-19T08:29:23;99353.69;;;23.91;51.70
79129;BME280;68529;43.286;23.360;2023-09-19T08:31:56;99351.81;;;24.12;51.08
79129;BME280;68529;43.286;23.360;2023-09-19T08:34:26;99347.84;;;24.37;50.83
79129;BME280;68529;43.286;23.360;2023-09-19T08:36:55;99348.44;;;24.60;51.25
79129;BME280;68529;43.286;23.360;2023-09-19T08:39:24;99351.16;;;24.69;51.14
79129;BME280;68529;43.286;23.360;2023-09-19T08:41:49;99347.34;;;24.72;50.13
79129;BME280;68529;43.286;23.360;2023-09-19T08:44:15;99357.66;;;24.67;50.21
79129;BME280;68529;43.286;23.360;2023-09-19T08:46:41;99347.75;;;24.77;50.13
79129;BME280;68529;43.286;23.360;2023-09-19T08:49:22;99351.34;;;24.87;49.63
79129;BME280;68529;43.286;23.360;2023-09-19T08:52:01;99350.44;;;24.77;49.80
79129;BME280;68529;43.286;23.360;2023-09-19T08:54:33;99350.03;;;24.72;49.51
79129;BME280;68529;43.286;23.360;2023-09-19T08:57:00;99358.03;;;24.62;49.27
79129;BME280;68529;43.286;23.360;2023-09-19T08:59:33;99346.88;;;24.57;50.09
79129;BME280;68529;43.286;23.360;2023-09-19T09:02:00;99356.06;;;24.55;49.95
79129;BME280;68529;43.286;23.360;2023-09-19T09:04:26;99349.94;;;24.43;49.73
79129;BME280;68529;43.286;23.360;2023-09-19T09:06:53;99354.50;;;24.43;49.77
79129;BME280;68529;43.286;23.360;2023-09-19T09:09:20;99347.84;;;24.37;49.84
79129;BME280;68529;43.286;23.360;2023-09-19T09:11:48;99350.81;;;24.34;49.67
79129;BME280;68529;43.286;23.360;2023-09-19T09:14:15;99353.16;;;24.27;50.12
79129;BME280;68529;43.286;23.360;2023-09-19T09:16:41;99350.75;;;24.24;49.57
79129;BME280;68529;43.286;23.360;2023-09-19T09:19:06;99353.00;;;24.19;49.64
79129;BME280;68529;43.286;23.360;2023-09-19T09:21:32;99347.03;;;24.16;49.31
79129;BME280;68529;43.286;23.360;2023-09-19T09:24:28;99346.72;;;24.09;49.45
79129;BME280;68529;43.286;23.360;2023-09-19T09:26:54;99346.84;;;24.08;49.63
79129;BME280;68529;43.286;23.360;2023-09-19T09:29:46;99342.59;;;24.05;49.38
79129;BME280;68529;43.286;23.360;2023-09-19T09:32:25;99340.59;;;23.98;49.68
79129;BME280;68529;43.286;23.360;2023-09-19T09:34:53;99341.41;;;23.98;50.09
79129;BME280;68529;43.286;23.360;2023-09-19T09:37:20;99347.66;;;23.99;50.17
79129;BME280;68529;43.286;23.360;2023-09-19T09:39:50;99347.91;;;23.96;49.94
79129;BME280;68529;43.286;23.360;2023-09-19T09:42:35;99343.41;;;23.96;50.07
79129;BME280;68529;43.286;23.360;2023-09-19T09:47:53;99336.19;;;23.97;50.38
79129;BME280;68529;43.286;23.360;2023-09-19T09:50:31;99335.34;;;23.96;50.02
79129;BME280;68529;43.286;23.360;2023-09-19T09:53:23;99336.34;;;23.95;50.22
79129;BME280;68529;43.286;23.360;2023-09-19T09:56:06;99331.69;;;23.97;50.54
79129;BME280;68529;43.286;23.360;2023-09-19T09:58:37;99341.91;;;24.03;50.25
79129;BME280;68529;43.286;23.360;2023-09-19T10:01:05;99344.16;;;24.08;50.38
79129;BME280;68529;43.286;23.360;2023-09-19T10:06:13;99339.00;;;24.16;50.05
79129;BME280;68529;43.286;23.360;2023-09-19T10:09:08;99332.50;;;24.18;50.23
79129;BME280;68529;43.286;23.360;2023-09-19T10:14:12;99332.13;;;24.32;49.53
79129;BME280;68529;43.286;23.360;2023-09-19T10:16:46;99333.28;;;24.40;49.91
79129;BME280;68529;43.286;23.360;2023-09-19T10:19:26;99333.56;;;24.46;49.95
79129;BME280;68529;43.286;23.360;2023-09-19T10:21:55;99339.25;;;24.53;50.17
79129;BME280;68529;43.286;23.360;2023-09-19T10:24:22;99336.56;;;24.62;50.11
79129;BME280;68529;43.286;23.360;2023-09-19T10:26:50;99336.59;;;24.72;50.73
79129;BME280;68529;43.286;23.360;2023-09-19T10:29:17;99333.78;;;25.21;49.09
79129;BME280;68529;43.286;23.360;2023-09-19T10:31:44;99339.63;;;25.92;47.65
79129;BME280;68529;43.286;23.360;2023-09-19T10:34:14;99333.44;;;26.46;46.92
79129;BME280;68529;43.286;23.360;2023-09-19T10:36:44;99339.53;;;26.93;45.76
79129;BME280;68529;43.286;23.360;2023-09-19T10:39:14;99333.97;;;27.30;44.54
79129;BME280;68529;43.286;23.360;2023-09-19T10:41:40;99342.13;;;27.55;43.58
79129;BME280;68529;43.286;23.360;2023-09-19T10:44:05;99328.31;;;27.58;43.00
79129;BME280;68529;43.286;23.360;2023-09-19T10:46:32;99322.28;;;27.64;43.09
79129;BME280;68529;43.286;23.360;2023-09-19T10:49:02;99321.84;;;27.77;43.36
79129;BME280;68529;43.286;23.360;2023-09-19T10:51:31;99308.31;;;27.69;43.32
79129;BME280;68529;43.286;23.360;2023-09-19T10:54:06;99314.63;;;27.52;43.22
79129;BME280;68529;43.286;23.360;2023-09-19T10:56:37;99308.19;;;27.53;42.27
79129;BME280;68529;43.286;23.360;2023-09-19T10:59:15;99298.28;;;27.36;43.28
79129;BME280;68529;43.286;23.360;2023-09-19T11:01:48;99295.28;;;27.21;42.72
79129;BME280;68529;43.286;23.360;2023-09-19T11:04:32;99293.84;;;27.09;44.32
79129;BME280;68529;43.286;23.360;2023-09-19T11:09:55;99280.22;;;27.36;43.55
79129;BME280;68529;43.286;23.360;2023-09-19T11:15:08;99278.59;;;27.61;43.12
79129;BME280;68529;43.286;23.360;2023-09-19T11:30:47;99275.50;;;26.59;44.35
79129;BME280;68529;43.286;23.360;2023-09-19T11:36:28;99268.25;;;26.42;44.57
79129;BME280;68529;43.286;23.360;2023-09-19T11:39:01;99269.94;;;26.43;45.17
79129;BME280;68529;43.286;23.360;2023-09-19T11:41:37;99263.84;;;26.41;45.14
79129;BME280;68529;43.286;23.360;2023-09-19T11:49:16;99255.84;;;26.32;45.16
79129;BME280;68529;43.286;23.360;2023-09-19T11:51:47;99254.59;;;26.26;44.57
79129;BME280;68529;43.286;23.360;2023-09-19T11:54:15;99250.81;;;26.19;45.45
79129;BME280;68529;43.286;23.360;2023-09-19T11:56:44;99255.09;;;26.12;44.47
79129;BME280;68529;43.286;23.360;2023-09-19T11:59:11;99244.59;;;26.09;45.12
79129;BME280;68529;43.286;23.360;2023-09-19T12:01:38;99243.75;;;26.09;44.97
79129;BME280;68529;43.286;23.360;2023-09-19T12:04:11;99246.88;;;26.14;45.47
79129;BME280;68529;43.286;23.360;2023-09-19T12:06:37;99244.56;;;26.19;44.86
79129;BME280;68529;43.286;23.360;2023-09-19T12:09:04;99243.59;;;26.20;45.25
79129;BME280;68529;43.286;23.360;2023-09-19T12:11:41;99245.00;;;26.24;45.22
79129;BME280;68529;43.286;23.360;2023-09-19T12:14:08;99249.81;;;26.20;44.88
79129;BME280;68529;43.286;23.360;2023-09-19T12:16:36;99244.19;;;26.14;44.40
79129;BME280;68529;43.286;23.360;2023-09-19T12:19:32;99243.66;;;26.00;45.35
79129;BME280;68529;43.286;23.360;2023-09-19T12:24:28;99236.47;;;25.91;45.89
79129;BME280;68529;43.286;23.360;2023-09-19T12:27:00;99237.06;;;25.85;45.59
79129;BME280;68529;43.286;23.360;2023-09-19T12:29:29;99242.06;;;25.80;45.88
79129;BME280;68529;43.286;23.360;2023-09-19T12:31:58;99247.59;;;25.79;45.91
79129;BME280;68529;43.286;23.360;2023-09-19T12:41:05;99238.03;;;25.67;46.38
79129;BME280;68529;43.286;23.360;2023-09-19T12:43:33;99241.41;;;25.69;45.71
79129;BME280;68529;43.286;23.360;2023-09-19T12:45:59;99243.97;;;25.70;46.05
79129;BME280;68529;43.286;23.360;2023-09-19T12:48:26;99237.44;;;25.73;46.05
79129;BME280;68529;43.286;23.360;2023-09-19T12:51:10;99229.50;;;25.71;45.87
79129;BME280;68529;43.286;23.360;2023-09-19T12:53:42;99239.53;;;25.79;46.14
79129;BME280;68529;43.286;23.360;2023-09-19T12:56:10;99236.47;;;25.91;45.67
79129;BME280;68529;43.286;23.360;2023-09-19T12:58:57;99226.06;;;26.16;46.17
79129;BME280;68529;43.286;23.360;2023-09-19T13:01:28;99223.44;;;26.41;45.33
79129;BME280;68529;43.286;23.360;2023-09-19T13:06:40;99225.13;;;26.42;44.24
79129;BME280;68529;43.286;23.360;2023-09-19T13:09:10;99233.28;;;26.33;43.98
79129;BME280;68529;43.286;23.360;2023-09-19T13:11:37;99230.91;;;26.30;44.56
79129;BME280;68529;43.286;23.360;2023-09-19T13:14:25;99236.06;;;26.23;45.31
79129;BME280;68529;43.286;23.360;2023-09-19T13:16:58;99234.34;;;26.22;45.21
79129;BME280;68529;43.286;23.360;2023-09-19T13:19:42;99225.72;;;26.19;45.10
79129;BME280;68529;43.286;23.360;2023-09-19T13:22:35;99224.44;;;26.13;45.12
79129;BME280;68529;43.286;23.360;2023-09-19T13:25:01;99227.47;;;26.10;45.66
79129;BME280;68529;43.286;23.360;2023-09-19T13:27:29;99224.78;;;26.10;45.72
79129;BME280;68529;43.286;23.360;2023-09-19T13:29:54;99226.44;;;26.11;45.25
79129;BME280;68529;43.286;23.360;2023-09-19T13:32:19;99220.84;;;26.04;45.29
79129;BME280;68529;43.286;23.360;2023-09-19T13:34:45;99227.25;;;25.94;45.55
79129;BME280;68529;43.286;23.360;2023-09-19T13:37:11;99226.00;;;25.88;44.82
79129;BME280;68529;43.286;23.360;2023-09-19T13:39:38;99223.47;;;25.87;45.06
79129;BME280;68529;43.286;23.360;2023-09-19T13:42:08;99224.75;;;25.83;45.66
79129;BME280;68529;43.286;23.360;2023-09-19T13:44:37;99226.47;;;25.84;45.67
79129;BME280;68529;43.286;23.360;2023-09-19T13:47:03;99217.81;;;25.90;45.76
79129;BME280;68529;43.286;23.360;2023-09-19T13:49:35;99208.88;;;25.89;45.25
79129;BME280;68529;43.286;23.360;2023-09-19T13:52:01;99216.09;;;25.89;45.13
79129;BME280;68529;43.286;23.360;2023-09-19T13:54:28;99219.25;;;25.84;45.16
79129;BME280;68529;43.286;23.360;2023-09-19T13:56:53;99217.25;;;25.86;44.56
79129;BME280;68529;43.286;23.360;2023-09-19T13:59:19;99213.88;;;25.84;44.33